createdAt,value
2022-11-05T00:02:05.253Z,15.38
2022-11-05T00:07:47.675Z,16.60
2022-11-05T00:10:21.799Z,15.63
2022-11-05T00:13:10.493Z,15.53
2022-11-05T00:16:00.916Z,16.25
2022-11-05T00:18:30.309Z,16.00
2022-11-05T00:20:59.036Z,16.85
2022-11-05T00:23:46.547Z,16.75
2022-11-05T00:26:16.141Z,16.17
2022-11-05T00:28:45.629Z,16.67
2022-11-05T00:31:14.506Z,15.98
2022-11-05T00:33:45.097Z,15.95
2022-11-05T00:36:14.642Z,15.38
2022-11-05T00:38:43.800Z,14.78
2022-11-05T00:41:12.732Z,14.20
2022-11-05T00:44:00.486Z,15.25
2022-11-05T00:46:31.844Z,15.60
2022-11-05T00:49:19.829Z,15.18
2022-11-05T00:51:50.460Z,14.47
2022-11-05T00:54:20.334Z,15.53
2022-11-05T00:56:49.235Z,14.47
2022-11-05T00:59:19.633Z,14.30
2022-11-05T01:01:49.010Z,14.55
2022-11-05T01:04:17.892Z,14.95
2022-11-05T01:06:47.979Z,15.13
2022-11-05T01:09:18.313Z,14.45
2022-11-05T01:11:47.842Z,13.53
2022-11-05T01:14:17.007Z,14.30
2022-11-05T01:16:46.889Z,14.43
2022-11-05T01:19:15.695Z,14.85
2022-11-05T01:21:45.909Z,14.73
2022-11-05T01:24:15.530Z,15.05
2022-11-05T01:26:45.446Z,14.30
2022-11-05T01:29:14.052Z,14.38
2022-11-05T01:31:43.674Z,13.85
2022-11-05T01:34:13.139Z,15.00
2022-11-05T01:36:41.909Z,13.70
2022-11-05T01:39:10.686Z,12.85
2022-11-05T01:41:40.381Z,13.50
2022-11-05T01:44:52.009Z,13.98
2022-11-05T01:47:29.818Z,13.22
2022-11-05T01:50:04.212Z,13.68
2022-11-05T01:52:33.648Z,13.03
2022-11-05T01:55:06.794Z,13.65
2022-11-05T01:57:35.924Z,13.25
2022-11-05T02:00:07.152Z,12.85
2022-11-05T02:02:39.903Z,13.65
2022-11-05T02:05:11.428Z,13.45
2022-11-05T02:07:40.935Z,14.30
2022-11-05T02:10:13.913Z,14.07
2022-11-05T02:12:47.473Z,12.82
2022-11-05T02:15:48.781Z,14.00
2022-11-05T02:18:38.228Z,13.48
2022-11-05T02:21:27.534Z,14.75
2022-11-05T02:24:32.189Z,14.47
2022-11-05T02:27:16.361Z,14.00
2022-11-05T02:30:05.435Z,12.93
2022-11-05T02:33:00.594Z,13.80
2022-11-05T02:35:54.956Z,13.80
2022-11-05T02:38:41.965Z,12.68
2022-11-05T02:41:50.323Z,12.50
2022-11-05T02:44:33.871Z,12.93
2022-11-05T02:47:54.037Z,11.45
2022-11-05T02:50:40.012Z,12.45
2022-11-05T02:53:16.687Z,11.65
2022-11-05T02:55:58.498Z,11.38
2022-11-05T02:58:30.746Z,10.45
2022-11-05T03:01:02.949Z,12.30
2022-11-05T03:03:47.554Z,12.00
2022-11-05T03:06:54.041Z,12.20
2022-11-05T03:09:32.231Z,12.50
2022-11-05T03:15:33.626Z,10.72
2022-11-05T03:18:22.786Z,12.30
2022-11-05T03:21:02.930Z,12.15
2022-11-05T03:23:46.852Z,11.45
2022-11-05T03:26:35.932Z,10.58
2022-11-05T03:29:09.725Z,11.53
2022-11-05T03:31:39.505Z,10.43
2022-11-05T03:34:08.580Z,11.55
2022-11-05T03:36:41.893Z,11.03
2022-11-05T03:39:15.831Z,10.93
2022-11-05T03:41:45.327Z,10.15
2022-11-05T03:44:15.828Z,10.72
2022-11-05T03:46:49.894Z,10.88
2022-11-05T03:49:32.523Z,10.55
2022-11-05T03:52:19.828Z,10.65
2022-11-05T03:54:49.687Z,10.08
2022-11-05T03:57:25.926Z,10.48
2022-11-05T03:59:55.832Z,10.43
2022-11-05T04:02:26.219Z,11.55
2022-11-05T04:04:56.615Z,10.15
2022-11-05T04:07:45.183Z,9.65
2022-11-05T04:10:32.970Z,10.60
2022-11-05T04:13:21.625Z,12.20
2022-11-05T04:16:10.965Z,11.25
2022-11-05T04:18:39.990Z,11.10
2022-11-05T04:21:28.070Z,10.70
2022-11-05T04:24:09.649Z,9.13
2022-11-05T04:26:41.321Z,9.78
2022-11-05T04:29:29.131Z,10.25
2022-11-05T04:31:59.409Z,8.45
2022-11-05T04:34:30.179Z,7.65
2022-11-05T04:37:00.795Z,8.23
2022-11-05T04:39:29.568Z,9.15
2022-11-05T04:41:59.677Z,8.78
2022-11-05T04:44:28.707Z,8.88
2022-11-05T04:46:58.188Z,8.45
2022-11-05T04:49:30.215Z,8.55
2022-11-05T04:51:59.082Z,8.00
2022-11-05T04:54:28.068Z,8.75
2022-11-05T04:56:58.301Z,7.83
2022-11-05T04:59:27.241Z,8.35
2022-11-05T05:01:56.994Z,8.80
2022-11-05T05:04:26.233Z,8.23
2022-11-05T05:06:56.038Z,8.63
2022-11-05T05:09:24.954Z,8.78
2022-11-05T05:11:53.699Z,8.98
2022-11-05T05:14:22.828Z,9.48
2022-11-05T05:16:53.300Z,8.38
2022-11-05T05:19:25.919Z,9.70
2022-11-05T05:21:56.063Z,9.18
2022-11-05T05:24:25.211Z,9.58
2022-11-05T05:26:54.933Z,9.68
2022-11-05T05:29:25.956Z,10.15
2022-11-05T05:31:54.951Z,10.32
2022-11-05T05:34:24.226Z,9.40
2022-11-05T05:36:53.930Z,10.23
2022-11-05T05:39:24.264Z,10.88
2022-11-05T05:41:54.753Z,10.60
2022-11-05T05:44:23.693Z,11.33
2022-11-05T05:46:55.593Z,10.82
2022-11-05T05:49:24.515Z,10.80
2022-11-05T05:51:53.763Z,10.38
2022-11-05T05:54:26.397Z,10.23
2022-11-05T05:56:54.757Z,10.63
2022-11-05T05:59:23.874Z,9.68
2022-11-05T06:01:52.874Z,10.13
2022-11-05T06:04:22.777Z,9.70
2022-11-05T06:06:53.082Z,9.33
2022-11-05T06:09:21.777Z,9.93
2022-11-05T06:11:50.988Z,9.78
2022-11-05T06:14:20.188Z,9.38
2022-11-05T06:16:51.330Z,10.08
2022-11-05T06:19:21.061Z,10.28
2022-11-05T06:21:49.681Z,10.90
2022-11-05T06:24:18.371Z,10.75
2022-11-05T06:26:48.838Z,10.18
2022-11-05T06:29:18.347Z,10.38
2022-11-05T06:31:49.342Z,10.45
2022-11-05T06:34:19.638Z,10.38
2022-11-05T06:36:48.658Z,10.25
2022-11-05T06:39:18.457Z,9.88
2022-11-05T06:44:19.336Z,9.83
2022-11-05T06:46:49.575Z,10.85
2022-11-05T06:49:18.608Z,11.35
2022-11-05T06:51:47.426Z,11.35
2022-11-05T06:54:16.744Z,10.70
2022-11-05T06:56:46.874Z,11.35
2022-11-05T06:59:16.862Z,10.88
2022-11-05T07:01:47.123Z,11.73
2022-11-05T07:04:16.899Z,11.18
2022-11-05T07:06:48.253Z,10.98
2022-11-05T07:09:18.457Z,10.70
2022-11-05T07:11:47.937Z,9.90
2022-11-05T07:14:17.476Z,10.23
2022-11-05T07:16:46.994Z,9.60
2022-11-05T07:19:16.180Z,10.40
2022-11-05T07:21:45.693Z,11.00
2022-11-05T07:24:15.903Z,10.40
2022-11-05T07:26:44.642Z,10.80
2022-11-05T07:29:14.615Z,10.45
2022-11-05T07:31:43.879Z,10.55
2022-11-05T07:34:13.243Z,10.68
2022-11-05T07:36:41.902Z,11.15
2022-11-05T07:39:11.710Z,10.93
2022-11-05T07:41:40.353Z,10.78
2022-11-05T07:44:11.471Z,10.78
2022-11-05T07:46:42.188Z,11.53
2022-11-05T07:49:11.481Z,10.98
2022-11-05T07:51:40.530Z,10.88
2022-11-05T07:54:11.894Z,11.85
2022-11-05T07:56:41.978Z,10.55
2022-11-05T07:59:11.447Z,10.85
2022-11-05T08:01:40.435Z,12.73
2022-11-05T08:04:09.493Z,12.03
2022-11-05T08:06:40.370Z,12.68
2022-11-05T08:09:11.536Z,12.18
2022-11-05T08:11:41.287Z,13.35
2022-11-05T08:14:10.111Z,12.40
2022-11-05T08:16:39.337Z,12.88
2022-11-05T08:19:12.661Z,12.43
2022-11-05T08:21:42.664Z,12.55
2022-11-05T08:24:11.880Z,11.38
2022-11-05T08:26:41.076Z,11.18
2022-11-05T08:29:10.705Z,11.33
2022-11-05T08:31:39.965Z,11.12
2022-11-05T08:34:09.277Z,11.53
2022-11-05T08:36:40.972Z,10.88
2022-11-05T08:39:15.847Z,10.13
2022-11-05T08:41:42.102Z,10.35
2022-11-05T08:44:12.621Z,11.08
2022-11-05T08:46:41.905Z,10.60
2022-11-05T08:49:11.854Z,11.25
2022-11-05T08:51:44.748Z,10.30
2022-11-05T08:54:14.324Z,10.98
2022-11-05T08:56:45.447Z,10.53
2022-11-05T08:59:15.015Z,11.35
2022-11-05T09:01:45.006Z,10.98
2022-11-05T09:04:14.047Z,11.65
2022-11-05T09:06:42.959Z,11.43
2022-11-05T09:09:13.365Z,11.63
2022-11-05T09:12:10.492Z,13.93
2022-11-05T09:14:15.449Z,11.80
2022-11-05T09:16:44.218Z,13.72
2022-11-05T09:19:14.019Z,13.18
2022-11-05T09:21:43.731Z,10.95
2022-11-05T09:24:12.780Z,10.78
2022-11-05T09:26:43.030Z,11.80
2022-11-05T09:29:14.512Z,12.45
2022-11-05T09:31:42.747Z,11.70
2022-11-05T09:34:12.290Z,12.25
2022-11-05T09:36:42.550Z,11.28
2022-11-05T09:39:14.661Z,12.98
2022-11-05T09:41:44.370Z,13.38
2022-11-05T09:44:20.316Z,12.70
2022-11-05T09:46:59.964Z,12.65
2022-11-05T09:49:39.745Z,12.45
2022-11-05T09:52:30.684Z,12.28
2022-11-05T09:55:00.645Z,12.88
2022-11-05T09:57:47.189Z,12.60
2022-11-05T10:00:17.141Z,12.10
2022-11-05T10:02:59.627Z,11.85
2022-11-05T10:05:28.928Z,11.80
2022-11-05T10:08:09.930Z,11.75
2022-11-05T10:10:46.050Z,12.25
2022-11-05T10:13:37.262Z,12.00
2022-11-05T10:16:30.507Z,11.38
2022-11-05T10:19:19.254Z,10.75
2022-11-05T10:24:20.784Z,11.97
2022-11-05T10:26:53.697Z,11.75
2022-11-05T10:29:29.580Z,10.18
2022-11-05T10:31:59.145Z,11.22
2022-11-05T10:34:32.757Z,10.03
2022-11-05T10:37:02.277Z,11.03
2022-11-05T10:39:32.527Z,10.72
2022-11-05T10:42:26.655Z,9.85
2022-11-05T10:45:20.487Z,10.55
2022-11-05T10:48:07.610Z,10.55
2022-11-05T10:50:36.726Z,11.70
2022-11-05T10:53:15.466Z,10.30
2022-11-05T10:55:49.695Z,10.13
2022-11-05T10:58:38.781Z,11.20
2022-11-05T11:01:11.775Z,10.98
2022-11-05T11:03:52.790Z,11.08
2022-11-05T11:06:27.763Z,10.38
2022-11-05T11:09:02.068Z,10.60
2022-11-05T11:11:41.790Z,11.08
2022-11-05T11:14:17.742Z,11.22
2022-11-05T11:16:50.141Z,10.32
2022-11-05T11:19:36.088Z,10.08
2022-11-05T11:22:11.136Z,10.23
2022-11-05T11:24:53.319Z,9.98
2022-11-05T11:27:28.965Z,10.45
2022-11-05T11:30:03.921Z,10.72
2022-11-05T11:32:36.508Z,10.63
2022-11-05T11:35:13.480Z,10.03
2022-11-05T11:37:48.071Z,10.20
2022-11-05T11:40:21.590Z,10.95
2022-11-05T11:42:55.731Z,10.65
2022-11-05T11:45:35.473Z,10.88
2022-11-05T11:48:10.097Z,9.70
2022-11-05T11:50:42.719Z,10.20
2022-11-05T11:53:33.458Z,10.05
2022-11-05T11:56:08.983Z,10.63
2022-11-05T11:58:45.947Z,10.75
2022-11-05T12:01:47.964Z,10.85
2022-11-05T12:04:36.347Z,10.40
2022-11-05T12:07:19.083Z,11.12
2022-11-05T12:10:13.661Z,11.25
2022-11-05T12:13:00.246Z,11.65
2022-11-05T12:15:57.658Z,11.53
2022-11-05T12:18:49.757Z,11.15
2022-11-05T12:21:52.145Z,11.90
2022-11-05T12:24:21.377Z,15.53
2022-11-05T12:27:11.072Z,12.60
2022-11-05T12:29:55.132Z,11.85
2022-11-05T12:32:38.191Z,13.10
2022-11-05T12:35:36.724Z,13.38
2022-11-05T12:38:23.042Z,13.98
2022-11-05T12:41:27.227Z,12.45
2022-11-05T12:44:26.970Z,12.18
2022-11-05T12:47:22.640Z,12.68
2022-11-05T12:50:13.192Z,13.98
2022-11-05T12:52:55.280Z,13.13
2022-11-05T12:55:31.031Z,13.62
2022-11-05T12:58:11.100Z,12.30
2022-11-05T13:00:44.265Z,11.70
2022-11-05T13:03:21.471Z,12.10
2022-11-05T13:06:00.273Z,13.28
2022-11-05T13:09:04.255Z,13.85
2022-11-05T13:11:54.054Z,13.55
2022-11-05T13:14:47.253Z,14.98
2022-11-05T13:17:29.541Z,14.60
2022-11-05T13:20:17.498Z,14.30
2022-11-05T13:22:51.666Z,13.83
2022-11-05T13:25:28.569Z,12.93
2022-11-05T13:28:21.077Z,13.13
2022-11-05T13:30:56.412Z,12.68
2022-11-05T13:33:36.136Z,15.90
2022-11-05T13:36:35.371Z,14.40
2022-11-05T13:39:18.575Z,13.03
2022-11-05T13:42:16.095Z,14.45
2022-11-05T13:44:57.645Z,14.83
2022-11-05T13:48:07.623Z,14.90
2022-11-05T13:51:13.316Z,12.70
2022-11-05T13:54:19.105Z,13.25
2022-11-05T13:57:05.555Z,13.28
2022-11-05T13:59:46.026Z,13.88
2022-11-05T14:02:25.647Z,13.30
2022-11-05T14:05:01.036Z,12.90
2022-11-05T14:07:34.370Z,12.68
2022-11-05T14:13:06.024Z,13.93
2022-11-05T14:15:35.540Z,12.90
2022-11-05T14:18:41.002Z,11.28
2022-11-05T14:21:36.056Z,13.13
2022-11-05T14:24:30.097Z,12.43
2022-11-05T14:27:06.747Z,12.40
2022-11-05T14:29:47.226Z,12.50
2022-11-05T14:32:24.240Z,10.82
2022-11-05T14:35:21.576Z,11.18
2022-11-05T14:37:58.805Z,11.22
2022-11-05T14:40:44.010Z,11.73
2022-11-05T14:43:20.542Z,12.18
2022-11-05T14:46:00.459Z,11.88
2022-11-05T14:48:56.336Z,14.45
2022-11-05T14:51:42.398Z,14.43
2022-11-05T14:54:31.425Z,14.40
2022-11-05T14:57:02.230Z,15.00
2022-11-05T14:59:35.135Z,14.63
2022-11-05T15:02:30.389Z,14.85
2022-11-05T15:05:50.994Z,15.40
2022-11-05T15:08:40.767Z,13.80
2022-11-05T15:11:16.130Z,14.15
2022-11-05T15:14:00.450Z,13.72
2022-11-05T15:16:44.997Z,13.65
2022-11-05T15:19:33.150Z,13.20
2022-11-05T15:22:06.104Z,13.68
2022-11-05T15:24:35.632Z,13.38
2022-11-05T15:27:16.601Z,13.40
2022-11-05T15:29:45.622Z,13.18
2022-11-05T15:32:19.374Z,13.20
2022-11-05T15:34:53.149Z,11.60
2022-11-05T15:37:25.238Z,10.90
2022-11-05T15:39:56.537Z,12.47
2022-11-05T15:42:27.556Z,10.68
2022-11-05T15:44:58.172Z,10.85
2022-11-05T15:47:30.327Z,10.88
2022-11-05T15:50:03.259Z,11.70
2022-11-05T15:52:37.057Z,11.57
2022-11-05T15:55:22.990Z,11.53
2022-11-05T15:58:06.724Z,11.25
2022-11-05T16:00:37.181Z,11.05
2022-11-05T16:03:28.210Z,11.15
2022-11-05T16:05:57.206Z,11.38
2022-11-05T16:08:28.535Z,11.68
2022-11-05T16:11:02.986Z,12.60
2022-11-05T16:13:40.867Z,13.43
2022-11-05T16:16:21.588Z,17.27
2022-11-05T16:18:51.292Z,14.20
2022-11-05T16:21:22.731Z,13.75
2022-11-05T16:23:58.324Z,13.20
2022-11-05T16:29:22.895Z,14.25
2022-11-05T16:31:54.240Z,14.40
2022-11-05T16:34:34.077Z,15.23
2022-11-05T16:37:04.015Z,15.93
2022-11-05T16:39:33.567Z,15.45
2022-11-05T16:42:05.030Z,15.63
2022-11-05T16:44:33.989Z,16.80
2022-11-05T16:47:02.732Z,15.32
2022-11-05T16:49:34.263Z,16.12
2022-11-05T16:52:11.416Z,16.25
2022-11-05T16:54:40.591Z,16.87
2022-11-05T16:57:27.320Z,17.92
2022-11-05T16:59:57.897Z,18.25
2022-11-05T17:02:28.116Z,18.45
2022-11-05T17:04:58.071Z,17.27
2022-11-05T17:07:26.856Z,17.92
2022-11-05T17:09:57.053Z,18.82
2022-11-05T17:12:26.421Z,18.62
2022-11-05T17:14:57.610Z,17.30
2022-11-05T17:17:27.508Z,17.42
2022-11-05T17:19:56.324Z,17.87
2022-11-05T17:22:24.988Z,18.62
2022-11-05T17:24:54.238Z,16.73
2022-11-05T17:27:23.058Z,16.85
2022-11-05T17:29:52.788Z,16.27
2022-11-05T17:32:22.495Z,16.23
2022-11-05T17:34:53.797Z,18.10
2022-11-05T17:37:22.998Z,16.65
2022-11-05T17:39:52.630Z,17.48
2022-11-05T17:42:22.589Z,15.58
2022-11-05T17:44:51.369Z,14.13
2022-11-05T17:47:20.287Z,13.53
2022-11-05T17:49:49.274Z,12.73
2022-11-05T17:52:18.803Z,14.20
2022-11-05T17:54:47.747Z,13.83
2022-11-05T17:57:18.018Z,15.00
2022-11-05T17:59:47.240Z,14.87
2022-11-05T18:02:16.151Z,14.35
2022-11-05T18:04:45.442Z,15.10
2022-11-05T18:07:15.063Z,14.40
2022-11-05T18:09:44.914Z,13.75
2022-11-05T18:12:14.109Z,15.13
2022-11-05T18:14:43.316Z,15.25
2022-11-05T18:17:15.372Z,12.98
2022-11-05T18:19:47.262Z,12.05
2022-11-05T18:22:19.473Z,13.05
2022-11-05T18:24:50.517Z,12.33
2022-11-05T18:27:24.009Z,12.45
2022-11-05T18:29:54.331Z,11.43
2022-11-05T18:32:23.704Z,12.47
2022-11-05T18:34:54.673Z,12.10
2022-11-05T18:37:27.329Z,13.40
2022-11-05T18:39:57.412Z,12.13
2022-11-05T18:42:26.198Z,11.95
2022-11-05T18:44:56.242Z,11.35
2022-11-05T18:47:27.096Z,11.25
2022-11-05T18:49:58.138Z,10.75
2022-11-05T18:52:28.567Z,11.28
2022-11-05T18:54:58.977Z,11.90
2022-11-05T18:57:28.091Z,11.90
2022-11-05T18:59:59.443Z,11.85
2022-11-05T19:02:28.456Z,11.53
2022-11-05T19:07:29.369Z,11.40
2022-11-05T19:09:59.211Z,11.25
2022-11-05T19:12:28.982Z,11.75
2022-11-05T19:15:02.383Z,11.18
2022-11-05T19:17:32.101Z,11.10
2022-11-05T19:20:01.647Z,11.88
2022-11-05T19:22:32.570Z,11.90
2022-11-05T19:25:01.892Z,11.88
2022-11-05T19:27:31.746Z,11.65
2022-11-05T19:30:01.377Z,11.80
2022-11-05T19:32:33.085Z,11.35
2022-11-05T19:35:03.029Z,11.12
2022-11-05T19:37:32.212Z,11.93
2022-11-05T19:40:01.191Z,11.90
2022-11-05T19:42:31.603Z,11.75
2022-11-05T19:45:23.137Z,11.45
2022-11-05T19:47:31.678Z,12.18
2022-11-05T19:50:01.030Z,11.43
2022-11-05T19:52:31.222Z,12.07
2022-11-05T19:55:00.866Z,11.93
2022-11-05T19:57:30.159Z,12.23
2022-11-05T20:00:00.521Z,11.70
2022-11-05T20:02:30.278Z,12.33
2022-11-05T20:04:59.177Z,12.60
2022-11-05T20:07:29.447Z,12.23
2022-11-05T20:09:59.412Z,11.90
2022-11-05T20:12:30.117Z,12.07
2022-11-05T20:14:59.128Z,11.93
2022-11-05T20:17:29.701Z,12.37
2022-11-05T20:19:58.820Z,12.25
2022-11-05T20:22:28.541Z,13.05
2022-11-05T20:24:58.046Z,12.40
2022-11-05T20:27:27.107Z,12.07
2022-11-05T20:29:56.860Z,12.03
2022-11-05T20:32:28.891Z,13.10
2022-11-05T20:34:58.897Z,11.75
2022-11-05T20:37:29.573Z,13.35
2022-11-05T20:39:58.652Z,12.55
2022-11-05T20:42:28.300Z,12.88
2022-11-05T20:45:00.245Z,12.88
2022-11-05T20:47:31.105Z,12.35
2022-11-05T20:50:01.033Z,13.35
2022-11-05T20:52:31.791Z,14.55
2022-11-05T20:55:07.184Z,13.18
2022-11-05T20:57:38.330Z,13.83
2022-11-05T21:00:09.113Z,13.35
2022-11-05T21:02:39.471Z,14.65
2022-11-05T21:05:12.114Z,14.03
2022-11-05T21:07:42.493Z,14.78
2022-11-05T21:10:15.363Z,13.80
2022-11-05T21:12:44.674Z,15.03
2022-11-05T21:15:14.819Z,16.42
2022-11-05T21:17:45.143Z,15.30
2022-11-05T21:20:13.971Z,14.55
2022-11-05T21:22:45.741Z,13.65
2022-11-05T21:25:14.646Z,14.98
2022-11-05T21:27:43.943Z,16.37
2022-11-05T21:30:14.780Z,15.98
2022-11-05T21:32:47.011Z,16.42
2022-11-05T21:35:18.153Z,14.58
2022-11-05T21:37:47.657Z,15.68
2022-11-05T21:40:17.417Z,16.50
2022-11-05T21:42:49.371Z,16.82
2022-11-05T21:45:20.052Z,16.45
2022-11-05T21:47:50.751Z,15.63
2022-11-05T21:50:22.229Z,15.45
2022-11-05T21:53:10.017Z,16.00
2022-11-05T21:56:00.641Z,16.12
2022-11-05T21:58:35.111Z,16.67
2022-11-05T22:01:04.971Z,15.43
2022-11-05T22:03:33.862Z,15.53
2022-11-05T22:06:05.507Z,16.87
2022-11-05T22:08:35.554Z,15.83
2022-11-05T22:11:06.414Z,16.57
2022-11-05T22:13:36.783Z,17.65
2022-11-05T22:16:07.869Z,15.78
2022-11-05T22:18:37.041Z,15.43
2022-11-05T22:21:07.023Z,16.80
2022-11-05T22:23:35.962Z,16.62
2022-11-05T22:26:06.495Z,16.82
2022-11-05T22:28:36.658Z,15.50
2022-11-05T22:31:14.644Z,16.50
2022-11-05T22:33:45.030Z,16.32
2022-11-05T22:36:13.800Z,16.60
2022-11-05T22:38:44.057Z,16.52
2022-11-05T22:41:18.936Z,16.30
2022-11-05T22:43:50.104Z,16.30
2022-11-05T22:46:24.781Z,15.43
2022-11-05T22:48:54.200Z,16.20
2022-11-05T22:51:27.804Z,17.15
2022-11-05T22:53:56.811Z,16.30
2022-11-05T22:56:30.659Z,15.72
2022-11-05T22:59:00.241Z,15.20
2022-11-05T23:01:29.477Z,15.75
2022-11-05T23:03:59.426Z,17.12
2022-11-05T23:06:50.643Z,17.07
2022-11-05T23:09:42.240Z,17.15
2022-11-05T23:12:37.914Z,16.37
2022-11-05T23:15:08.473Z,17.40
2022-11-05T23:17:56.132Z,16.93
2022-11-05T23:20:35.154Z,16.87
2022-11-05T23:23:22.607Z,17.75
2022-11-05T23:28:22.997Z,15.95
2022-11-05T23:31:11.676Z,16.05
2022-11-05T23:33:41.409Z,16.37
2022-11-05T23:36:30.961Z,16.55
2022-11-05T23:39:01.476Z,16.57
2022-11-05T23:41:50.111Z,16.27
2022-11-05T23:44:39.809Z,17.35
2022-11-05T23:47:27.390Z,17.25
2022-11-05T23:49:56.681Z,17.65
2022-11-05T23:52:26.298Z,16.42
2022-11-05T23:54:56.350Z,16.48
2022-11-05T23:57:25.670Z,17.02
2022-11-05T23:59:54.724Z,17.10
